Jacksonville, FL (32224)

11:16 PM EDT on August 25, 2016 (GMT -0400)
Windsor Park/Hanover Park | | Change Station

Elev 30 ft 30.26 °N, 81.45 °W | Updated 32 seconds ago

Overcast
Overcast
80.8 °F
Feels Like 85 °F
N
2.7
Wind Variable Wind from NE
Gusts 4.9 mph

Today
High -- | Low -- °F
--% Chance of Precip.
Yesterday
High -- | Low -- °F
Precip. -- in
Pressure 30.05 in
Visibility 10.0 miles
Clouds Overcast 8000 ft
Heat Index 85 °F
Dew Point 72 °F
Humidity 75%
Rainfall 0.00 in
Snow Depth Not available.
6:58 AM 7:56 PM
Last Quarter, 39% visible
METAR KCRG 260253Z AUTO 06005KT 10SM OVC080 28/22 A3005 RMK AO2 SLP176 T02780217 50001
Pressure 30.05 in
Visibility 10.0 miles
Clouds Overcast 8000 ft
Heat Index 85 °F
Dew Point 72 °F
Humidity 75%
Rainfall 0.00 in
Snow Depth Not available.
6:58 AM 7:56 PM
Last Quarter, 39% visible
METAR KCRG 260253Z AUTO 06005KT 10SM OVC080 28/22 A3005 RMK AO2 SLP176 T02780217 50001
A tropical disturbance pushing toward the Bahamas, is expected to develop into a tropical depression or storm, and will likely target Florida and the Gulf Coast this weekend into next week.

Right now, the disturbance remains a broad area of low pressure pushing through the Dominican Republic and Haiti, headed toward the southeast Bahamas. Rainfall totals over 3 inches (with locally higher amounts) are expected in HispaƱiola, particularly over elevated terrain.

10-Day Weather Forecast

Almanac

Astronomy

Aug. 25, 2016 Rise Set
Actual Time
Civil Twilight
Nautical Twilight
Astronomical Twilight
Moon
Length of Visible Light
Length of Day
Tomorrow will be .
, % of the Moon is Illuminated

Today's Extremes

State Highs State Lows

Community

WunderPhotos

Upload Photos

1,935,036 photos uploaded!

WunderBlog® & News

Nearby

Air Quality

  Air Quality AQ Index Pollutant
Not available.

Snow Depth

Station Depth Elevation

Earthquake Activity

City Distance Mag. Time & Date
Minimum magnitude displayed is 2.5.

Coastal Water Temperatures

Place Temperature

Stations

Nearby Weather Stations

Station Location Temp. Windchill Dew Point Humidity Wind Precip. Elev Updated Type
                   

Watches & Warnings

There are currently no watches in effect.